createdAt,value
2023-02-19T00:00:15.655Z,79.367606
2023-02-19T00:05:15.734Z,81.239161
2023-02-19T00:10:16.544Z,82.497872
2023-02-19T00:15:15.919Z,81.883803
2023-02-19T00:20:16.044Z,81.660140
2023-02-19T00:25:18.572Z,82.177083
2023-02-19T00:30:16.007Z,81.766434
2023-02-19T00:35:15.825Z,82.031250
2023-02-19T00:40:16.439Z,82.734028
2023-02-19T00:45:17.256Z,82.670213
2023-02-19T00:50:16.290Z,82.691667
2023-02-19T00:55:16.438Z,81.033099
2023-02-19T01:00:16.503Z,81.425000
2023-02-19T01:05:16.906Z,82.101439
2023-02-19T01:10:15.851Z,82.273381
2023-02-19T01:15:16.640Z,82.025532
2023-02-19T01:20:19.080Z,81.135915
2023-02-19T01:25:16.038Z,81.040000
2023-02-19T01:30:16.352Z,81.313380
2023-02-19T01:35:20.241Z,81.638298
2023-02-19T01:40:18.570Z,81.745070
2023-02-19T01:45:16.059Z,81.577465
2023-02-19T01:50:18.702Z,81.514789
2023-02-19T01:55:16.836Z,81.809220
2023-02-19T02:00:17.467Z,81.856738
2023-02-19T02:05:17.987Z,81.871831
2023-02-19T02:10:21.959Z,82.269014
2023-02-19T02:15:16.645Z,82.843972
2023-02-19T02:20:15.927Z,82.676761
2023-02-19T02:25:15.671Z,82.170714
2023-02-19T02:30:16.109Z,81.419149
2023-02-19T02:35:17.043Z,80.557447
2023-02-19T02:40:15.536Z,79.423239
2023-02-19T02:45:16.495Z,78.675887
2023-02-19T02:50:16.208Z,78.165957
2023-02-19T02:55:16.466Z,77.751064
2023-02-19T03:00:20.727Z,78.056028
2023-02-19T03:05:15.870Z,78.156738
2023-02-19T03:10:16.161Z,77.454225
2023-02-19T03:15:16.538Z,77.247887
2023-02-19T03:20:16.217Z,76.805594
2023-02-19T03:25:16.195Z,76.730769
2023-02-19T03:30:15.888Z,77.634752
2023-02-19T03:35:17.458Z,77.714583
2023-02-19T03:40:15.744Z,77.365734
2023-02-19T03:45:16.871Z,76.747586
2023-02-19T03:50:17.114Z,76.226573
2023-02-19T03:55:18.012Z,75.560563
2023-02-19T04:00:16.130Z,75.195070
2023-02-19T04:05:16.549Z,75.355556
2023-02-19T04:10:15.497Z,75.493662
2023-02-19T04:15:15.567Z,75.555634
2023-02-19T04:20:16.429Z,75.915972
2023-02-19T04:25:15.749Z,75.860140
2023-02-19T04:30:16.488Z,75.670629
2023-02-19T04:35:15.963Z,75.542254
2023-02-19T04:40:18.820Z,75.722759
2023-02-19T04:45:16.855Z,75.454167
2023-02-19T04:50:15.701Z,75.177241
2023-02-19T04:55:16.189Z,74.802778
2023-02-19T05:00:16.291Z,74.098611
2023-02-19T05:05:16.634Z,73.790278
2023-02-19T05:10:18.097Z,73.596528
2023-02-19T05:15:16.373Z,73.647552
2023-02-19T05:20:16.304Z,73.718056
2023-02-19T05:25:18.088Z,73.569930
2023-02-19T05:30:17.133Z,73.565734
2023-02-19T05:35:15.826Z,73.621678
2023-02-19T05:40:16.309Z,75.241259
2023-02-19T05:45:16.260Z,75.487324
2023-02-19T05:50:15.823Z,74.966667
2023-02-19T05:55:16.123Z,74.869444
2023-02-19T06:00:15.588Z,74.086806
2023-02-19T06:05:16.008Z,74.593662
2023-02-19T06:10:18.026Z,74.900699
2023-02-19T06:15:25.866Z,74.766197
2023-02-19T06:20:16.260Z,76.122378
2023-02-19T06:25:17.185Z,76.378322
2023-02-19T06:30:22.679Z,75.531250
2023-02-19T06:35:23.126Z,74.751370
2023-02-19T06:40:17.619Z,74.130769
2023-02-19T06:45:17.969Z,74.359441
2023-02-19T06:50:15.917Z,74.236364
2023-02-19T06:55:15.614Z,74.855479
2023-02-19T07:00:17.079Z,76.100000
2023-02-19T07:05:16.219Z,76.577778
2023-02-19T07:10:16.339Z,75.913986
2023-02-19T07:15:18.320Z,75.148592
2023-02-19T07:20:16.805Z,75.365734
2023-02-19T07:25:16.922Z,74.685517
2023-02-19T07:30:17.479Z,75.323288
2023-02-19T07:35:16.057Z,75.192517
2023-02-19T07:40:16.664Z,75.595205
2023-02-19T07:45:15.692Z,76.016327
2023-02-19T07:50:16.968Z,75.779310
2023-02-19T07:55:15.999Z,75.384932
2023-02-19T08:00:17.385Z,75.110135
2023-02-19T08:05:15.564Z,75.156849
2023-02-19T08:10:15.718Z,74.985714
2023-02-19T08:15:15.640Z,75.115862
2023-02-19T08:20:17.802Z,75.500000
2023-02-19T08:25:15.886Z,75.725000
2023-02-19T08:30:16.585Z,75.804698
2023-02-19T08:35:16.553Z,75.893289
2023-02-19T08:40:20.937Z,75.756757
2023-02-19T08:45:15.981Z,75.514189
2023-02-19T08:50:21.260Z,75.988514
2023-02-19T08:55:16.349Z,76.203401
2023-02-19T09:00:15.921Z,76.565068
2023-02-19T09:05:20.954Z,77.084932
2023-02-19T09:10:16.380Z,77.142069
2023-02-19T09:15:16.834Z,77.100000
2023-02-19T09:20:15.644Z,77.134932
2023-02-19T09:25:16.093Z,76.891781
2023-02-19T09:30:16.707Z,76.546154
2023-02-19T09:35:16.446Z,76.091667
2023-02-19T09:40:21.416Z,77.472727
2023-02-19T09:45:15.549Z,78.126389
2023-02-19T09:50:15.910Z,77.610417
2023-02-19T09:55:15.931Z,77.592517
2023-02-19T10:00:16.096Z,76.961644
2023-02-19T10:05:16.539Z,76.704795
2023-02-19T10:10:15.906Z,76.731724
2023-02-19T10:15:16.313Z,76.874830
2023-02-19T10:20:16.239Z,77.505517
2023-02-19T10:25:16.810Z,79.529861
2023-02-19T10:30:17.414Z,80.368493
2023-02-19T10:35:20.829Z,79.673103
2023-02-19T10:40:15.902Z,80.038621
2023-02-19T10:45:16.203Z,81.533103
2023-02-19T10:50:16.237Z,82.077778
2023-02-19T10:55:16.482Z,81.498630
2023-02-19T11:00:15.997Z,80.016438
2023-02-19T11:05:15.738Z,80.756849
2023-02-19T11:10:16.501Z,80.202778
2023-02-19T11:15:17.354Z,79.915278
2023-02-19T11:20:16.782Z,79.643056
2023-02-19T11:25:16.289Z,79.515385
2023-02-19T11:30:15.946Z,79.161538
2023-02-19T11:35:16.291Z,79.316783
2023-02-19T11:40:17.255Z,79.327536
2023-02-19T11:45:16.400Z,80.342446
2023-02-19T11:50:16.161Z,81.992857
2023-02-19T11:55:16.327Z,82.417857
2023-02-19T12:00:16.080Z,82.574638
2023-02-19T12:05:16.638Z,82.602797
2023-02-19T12:10:16.817Z,82.335971
2023-02-19T12:15:16.423Z,83.430216
2023-02-19T12:20:15.659Z,84.019286
2023-02-19T12:25:16.714Z,83.706429
2023-02-19T12:30:16.826Z,83.972340
2023-02-19T12:35:17.525Z,83.865248
2023-02-19T12:40:16.688Z,83.692958
2023-02-19T12:45:16.642Z,83.283803
2023-02-19T12:50:17.244Z,83.621277
2023-02-19T12:55:16.395Z,84.024113
2023-02-19T13:00:16.270Z,83.553472
2023-02-19T13:05:16.483Z,83.122695
2023-02-19T13:10:20.986Z,83.138028
2023-02-19T13:15:15.620Z,82.959155
2023-02-19T13:20:16.456Z,82.806207
2023-02-19T13:25:16.529Z,83.364828
2023-02-19T13:30:16.012Z,84.022378
2023-02-19T13:35:16.865Z,84.410490
2023-02-19T13:40:16.878Z,84.556643
2023-02-19T13:45:21.842Z,84.288194
2023-02-19T13:50:16.368Z,84.022535
2023-02-19T13:55:16.414Z,84.232168
2023-02-19T14:00:15.944Z,84.124113
2023-02-19T14:05:16.999Z,84.355714
2023-02-19T14:10:16.237Z,84.513669
2023-02-19T14:15:16.903Z,84.111511
2023-02-19T14:20:17.632Z,84.307092
2023-02-19T14:25:15.813Z,84.840000
2023-02-19T14:30:16.487Z,84.726761
2023-02-19T14:35:15.752Z,84.707801
2023-02-19T14:40:16.097Z,84.590714
2023-02-19T14:45:16.724Z,84.333803
2023-02-19T14:50:16.452Z,84.100699
2023-02-19T14:55:17.738Z,84.360000
2023-02-19T15:00:17.210Z,84.862069
2023-02-19T15:05:16.633Z,84.956552
2023-02-19T15:10:16.550Z,84.678767
2023-02-19T15:15:16.504Z,84.614483
2023-02-19T15:20:16.688Z,83.959310
2023-02-19T15:25:15.948Z,83.206383
2023-02-19T15:30:17.484Z,83.744681
2023-02-19T15:35:16.521Z,84.199286
2023-02-19T15:40:16.860Z,84.100000
2023-02-19T15:45:17.250Z,84.156429
2023-02-19T15:50:16.248Z,84.524823
2023-02-19T15:55:16.712Z,85.114085
2023-02-19T16:00:17.025Z,84.969930
2023-02-19T16:05:16.871Z,84.517241
2023-02-19T16:10:16.476Z,84.131507
2023-02-19T16:15:17.203Z,83.918750
2023-02-19T16:20:16.036Z,83.895172
2023-02-19T16:25:17.804Z,83.929861
2023-02-19T16:30:16.430Z,83.836806
2023-02-19T16:35:17.131Z,84.103472
2023-02-19T16:40:17.656Z,84.292086
2023-02-19T16:45:16.890Z,85.121429
2023-02-19T16:50:15.684Z,85.097163
2023-02-19T16:55:16.564Z,84.935461
2023-02-19T17:00:16.677Z,85.225352
2023-02-19T17:05:15.972Z,84.843151
2023-02-19T17:10:15.789Z,84.276056
2023-02-19T17:15:18.523Z,84.249296
2023-02-19T17:20:16.951Z,84.243357
2023-02-19T17:25:16.629Z,84.578169
2023-02-19T17:30:16.478Z,85.437589
2023-02-19T17:35:16.118Z,86.075714
2023-02-19T17:40:23.957Z,86.112950
2023-02-19T17:45:16.648Z,86.393617
2023-02-19T17:50:15.863Z,86.431690
2023-02-19T17:55:16.878Z,86.252482
2023-02-19T18:00:17.072Z,85.526619
2023-02-19T18:05:16.104Z,85.011268
2023-02-19T18:10:15.726Z,84.156338
2023-02-19T18:15:16.475Z,83.768310
2023-02-19T18:20:17.427Z,83.632168
2023-02-19T18:25:16.336Z,83.351748
2023-02-19T18:30:16.448Z,83.217606
2023-02-19T18:35:15.652Z,82.806338
2023-02-19T18:40:16.923Z,82.279433
2023-02-19T18:45:16.590Z,81.895000
2023-02-19T18:50:18.796Z,82.160870
2023-02-19T18:55:16.477Z,81.833333
2023-02-19T19:00:16.832Z,81.264539
2023-02-19T19:05:15.822Z,81.076429
2023-02-19T19:10:16.037Z,81.069504
2023-02-19T19:15:18.273Z,81.170922
2023-02-19T19:20:18.642Z,80.710714
2023-02-19T19:25:19.393Z,80.304965
2023-02-19T19:30:16.212Z,80.745390
2023-02-19T19:35:16.706Z,80.786331
2023-02-19T19:40:16.496Z,80.452143
2023-02-19T19:45:15.902Z,79.981560
2023-02-19T19:50:17.239Z,79.749286
2023-02-19T19:55:16.266Z,79.492958
2023-02-19T20:00:16.392Z,79.364539
2023-02-19T20:05:16.111Z,79.352143
2023-02-19T20:10:16.295Z,79.406338
2023-02-19T20:15:15.668Z,78.890909
2023-02-19T20:20:15.757Z,78.642254
2023-02-19T20:25:16.419Z,79.180714
2023-02-19T20:30:16.347Z,79.595070
2023-02-19T20:35:16.599Z,79.526056
2023-02-19T20:40:17.420Z,78.972340
2023-02-19T20:45:18.224Z,78.703521
2023-02-19T20:50:17.313Z,77.648951
2023-02-19T20:55:16.544Z,77.278873
2023-02-19T21:00:16.070Z,77.591489
2023-02-19T21:05:21.135Z,77.841958
2023-02-19T21:10:16.591Z,77.603521
2023-02-19T21:15:16.022Z,77.042553
2023-02-19T21:20:17.115Z,77.539716
2023-02-19T21:25:21.128Z,77.812057
2023-02-19T21:30:16.350Z,78.080851
2023-02-19T21:35:17.361Z,78.086525
2023-02-19T21:40:16.639Z,78.000000
2023-02-19T21:45:16.737Z,78.476056
2023-02-19T21:50:16.553Z,78.517021
2023-02-19T21:55:16.043Z,78.438298
2023-02-19T22:00:16.233Z,78.069014
2023-02-19T22:05:22.711Z,77.789362
2023-02-19T22:10:21.296Z,77.495105
2023-02-19T22:15:16.788Z,77.884028
2023-02-19T22:20:16.605Z,78.591549
2023-02-19T22:25:17.604Z,79.605674
2023-02-19T22:30:16.639Z,80.178873
2023-02-19T22:35:17.186Z,79.866197
2023-02-19T22:40:17.671Z,80.806897
2023-02-19T22:45:15.825Z,81.765068
2023-02-19T22:50:15.836Z,82.157639
2023-02-19T22:55:15.961Z,82.482517
2023-02-19T23:00:16.908Z,82.870213
2023-02-19T23:05:15.714Z,83.208451
2023-02-19T23:10:17.021Z,83.136364
2023-02-19T23:15:16.096Z,83.500704
2023-02-19T23:20:16.544Z,84.085816
2023-02-19T23:25:16.007Z,84.472028
2023-02-19T23:30:16.331Z,85.160000
2023-02-19T23:35:16.046Z,85.254610
2023-02-19T23:40:16.410Z,85.933562
2023-02-19T23:45:19.128Z,85.846528
2023-02-19T23:50:16.009Z,86.008333
2023-02-19T23:55:15.760Z,86.186620
